Terminal Aerodrome Forecast
Issued by NWS

Home | Current Version | Previous Version | Text Only | Print | Product List | Glossary On
Versions: 1 2 3 4 5 6 7 8 9 10 11 12 13 14 15 16
413
FTUS44 KTSA 210520
TAFBVO
TAF
KBVO 210520Z 2106/2206 00000KT P6SM SCT250
     FM211500 18006KT P6SM SCT250
     FM211900 19008KT P6SM SCT050
     FM220100 17005KT P6SM BKN250=

USA.gov is the U.S. government's official web portal to all federal, state and local government web resources and services.